Time;durP1;ratioP1;P1;durP2;ratioP2;P2;SDS_P1;SDS_P2;PMS_P1;PMS_P2;Temp;Humidity;BMP_temperature;BMP_pressure;BME280_temperature;BME280_humidity;BME280_pressure;Samples;Min_cycle;Max_cycle;Signal;HPM_P1;HPM_P2
2021/01/23 00:01:12;;;;;;;28.73;14.45;;;;;;;2.97;100.00;99110.09;5075414;28;20098;-80
2021/01/23 00:03:38;;;;;;;32.75;15.45;;;;;;;2.93;100.00;99110.00;5089294;28;20032;-79
2021/01/23 00:06:03;;;;;;;34.63;15.35;;;;;;;2.89;100.00;99105.72;5040569;28;20044;-80
2021/01/23 00:08:29;;;;;;;37.03;16.35;;;;;;;2.87;100.00;99114.03;5057949;28;20111;-80
2021/01/23 00:10:55;;;;;;;29.48;15.52;;;;;;;2.93;100.00;99104.69;5045978;28;20064;-80
2021/01/23 00:13:20;;;;;;;39.88;15.95;;;;;;;2.86;100.00;99095.78;5053562;28;20037;-77
2021/01/23 00:15:46;;;;;;;32.38;15.77;;;;;;;2.87;100.00;99092.78;5066500;28;20031;-80
2021/01/23 00:18:11;;;;;;;34.15;16.90;;;;;;;2.83;100.00;99097.22;5054612;28;20031;-80
2021/01/23 00:20:37;;;;;;;38.63;16.17;;;;;;;2.87;100.00;99092.78;5050073;28;20434;-80
2021/01/23 00:23:02;;;;;;;31.75;15.55;;;;;;;2.81;100.00;99091.47;5060281;28;20075;-79
2021/01/23 00:25:28;;;;;;;34.00;15.80;;;;;;;2.79;100.00;99091.03;5057562;28;20044;-79
2021/01/23 00:27:53;;;;;;;38.72;16.73;;;;;;;2.80;100.00;99092.59;5060134;28;20024;-80
2021/01/23 00:30:19;;;;;;;39.45;16.33;;;;;;;2.80;100.00;99103.22;5065467;28;20440;-80
2021/01/23 00:32:45;;;;;;;32.33;15.18;;;;;;;2.73;100.00;99098.50;5033019;28;20517;-80
2021/01/23 00:35:13;;;;;;;30.90;16.05;;;;;;;2.73;100.00;99092.41;5089404;28;20032;-80
2021/01/23 00:37:38;;;;;;;33.83;16.65;;;;;;;2.75;100.00;99098.16;5047639;28;20081;-79
2021/01/23 00:40:04;;;;;;;43.45;17.05;;;;;;;2.70;100.00;99085.13;5079842;28;20473;-78
2021/01/23 00:42:30;;;;;;;32.03;15.93;;;;;;;2.68;100.00;99088.13;5041460;28;20024;-80
2021/01/23 00:44:55;;;;;;;35.42;17.27;;;;;;;2.65;100.00;99093.38;5050519;28;20028;-79
2021/01/23 00:47:21;;;;;;;38.50;17.40;;;;;;;2.69;100.00;99094.97;5076111;28;20040;-81
2021/01/23 00:49:46;;;;;;;35.58;17.27;;;;;;;2.65;100.00;99101.34;5050827;28;20041;-78
2021/01/23 00:52:12;;;;;;;42.85;17.95;;;;;;;2.64;100.00;99095.25;5049205;28;20115;-80
2021/01/23 00:54:37;;;;;;;34.67;16.35;;;;;;;2.56;100.00;99101.47;5040351;28;20107;-80
2021/01/23 00:57:03;;;;;;;40.47;16.83;;;;;;;2.62;100.00;99099.34;5039902;28;20028;-80
2021/01/23 00:59:29;;;;;;;37.72;17.20;;;;;;;2.62;100.00;99094.81;5039538;28;20033;-80
2021/01/23 01:01:55;;;;;;;38.05;17.63;;;;;;;2.60;100.00;99101.56;5035612;28;20055;-78
2021/01/23 01:04:31;;;;;;;38.88;17.88;;;;;;;2.63;100.00;99101.66;5049249;28;20017;-79
2021/01/23 01:06:57;;;;;;;42.67;18.50;;;;;;;2.61;100.00;99097.81;5047357;28;20029;-79
2021/01/23 01:09:22;;;;;;;38.50;18.55;;;;;;;2.55;100.00;99107.91;5039940;28;20067;-79
2021/01/23 01:11:48;;;;;;;45.58;18.67;;;;;;;2.56;100.00;99098.03;5040223;28;20067;-79
2021/01/23 01:14:13;;;;;;;40.63;18.75;;;;;;;2.58;100.00;99096.59;5058129;28;20061;-79
2021/01/23 01:16:39;;;;;;;39.78;17.65;;;;;;;2.59;100.00;99098.13;5059864;28;20064;-78
2021/01/23 01:19:04;;;;;;;40.35;18.02;;;;;;;2.55;100.00;99091.97;5103359;28;20036;-80
2021/01/23 01:21:31;;;;;;;42.47;19.20;;;;;;;2.57;100.00;99094.28;5056693;28;20107;-78
2021/01/23 01:23:56;;;;;;;45.28;19.45;;;;;;;2.55;100.00;99081.34;5047515;28;20050;-79
2021/01/23 01:26:22;;;;;;;49.08;21.08;;;;;;;2.55;100.00;99089.31;5057396;28;20174;-81
2021/01/23 01:28:47;;;;;;;42.88;21.23;;;;;;;2.54;100.00;99092.28;5058029;28;20405;-79
2021/01/23 01:31:13;;;;;;;43.78;20.00;;;;;;;2.55;100.00;99083.22;5038831;28;20040;-80
2021/01/23 01:33:38;;;;;;;45.97;19.80;;;;;;;2.55;100.00;99089.31;5066625;28;20166;-80
2021/01/23 01:36:04;;;;;;;41.13;20.35;;;;;;;2.55;100.00;99091.19;5054784;28;20056;-79
2021/01/23 01:38:30;;;;;;;46.35;21.08;;;;;;;2.57;100.00;99094.28;5067765;28;20029;-80
2021/01/23 01:40:55;;;;;;;46.47;20.42;;;;;;;2.57;100.00;99089.75;5054816;28;20442;-78
2021/01/23 01:43:21;;;;;;;48.38;20.98;;;;;;;2.55;100.00;99088.53;5027837;28;20024;-78
2021/01/23 01:45:46;;;;;;;41.95;20.02;;;;;;;2.58;100.00;99090.50;5034255;28;20500;-79
2021/01/23 01:48:13;;;;;;;45.65;19.85;;;;;;;2.59;100.00;99086.75;5036465;28;20707;-78
2021/01/23 01:50:39;;;;;;;45.75;20.80;;;;;;;2.55;100.00;99096.50;5051501;28;20524;-80
2021/01/23 01:53:08;;;;;;;46.70;20.65;;;;;;;2.51;100.00;99091.09;5056237;28;20122;-79
2021/01/23 01:55:37;;;;;;;47.85;20.92;;;;;;;2.60;100.00;99085.63;5043461;28;20033;-79
2021/01/23 01:58:03;;;;;;;45.97;19.42;;;;;;;2.55;100.00;99085.88;5035015;28;20029;-80
2021/01/23 02:00:30;;;;;;;44.63;18.58;;;;;;;2.55;100.00;99084.00;5041117;28;20024;-78
2021/01/23 02:03:23;;;;;;;46.33;18.67;;;;;;;2.56;100.00;99090.06;5056754;28;20508;-79
2021/01/23 02:06:01;;;;;;;44.42;20.40;;;;;;;2.48;100.00;99091.00;5062623;28;20032;-80
2021/01/23 02:09:05;;;;;;;39.65;19.08;;;;;;;2.53;100.00;99088.88;5066446;28;20094;-78
2021/01/23 02:11:47;;;;;;;47.58;20.23;;;;;;;2.51;100.00;99090.31;5063289;28;20040;-80
2021/01/23 02:14:29;;;;;;;40.35;20.23;;;;;;;2.39;100.00;99095.69;5039008;28;20037;-79
2021/01/23 02:17:00;;;;;;;43.95;20.33;;;;;;;2.47;100.00;99098.22;5047054;28;20039;-79
2021/01/23 02:19:25;;;;;;;45.55;20.33;;;;;;;2.46;100.00;99096.66;5084434;28;20034;-78
2021/01/23 02:22:01;;;;;;;46.97;20.55;;;;;;;2.46;100.00;99087.91;5048922;28;20032;-79
2021/01/23 02:24:28;;;;;;;49.78;21.65;;;;;;;2.41;100.00;99082.84;5067510;28;20075;-80
2021/01/23 02:27:28;;;;;;;63.08;25.83;;;;;;;2.46;100.00;99096.66;5064343;28;20500;-79
2021/01/23 02:30:09;;;;;;;68.53;27.05;;;;;;;2.46;100.00;99093.22;5069826;28;20032;-81
2021/01/23 02:32:37;;;;;;;58.60;24.63;;;;;;;2.49;100.00;99108.50;5062569;28;20041;-79
2021/01/23 02:35:10;;;;;;;51.00;23.17;;;;;;;2.45;100.00;99099.66;5082575;28;20043;-80
2021/01/23 02:37:36;;;;;;;61.42;24.48;;;;;;;2.43;100.00;99105.31;5065497;28;20043;-80
2021/01/23 02:40:04;;;;;;;54.20;22.23;;;;;;;2.45;100.00;99104.97;5053425;28;20119;-79
2021/01/23 02:42:30;;;;;;;53.55;23.13;;;;;;;2.35;100.00;99108.09;5048162;28;20024;-79
2021/01/23 02:44:56;;;;;;;49.50;21.35;;;;;;;2.33;100.00;99100.47;5069658;28;20097;-79
2021/01/23 02:47:21;;;;;;;55.50;22.83;;;;;;;2.37;100.00;99104.00;5068244;28;20036;-80
2021/01/23 02:49:48;;;;;;;52.22;22.40;;;;;;;2.38;100.00;99107.44;5057617;28;20036;-79
2021/01/23 02:52:29;;;;;;;58.85;26.48;;;;;;;2.38;100.00;99096.81;5041260;28;20028;-80
2021/01/23 02:55:11;;;;;;;56.08;22.63;;;;;;;2.40;100.00;99105.97;5093706;28;20033;-79
2021/01/23 02:57:39;;;;;;;56.03;23.38;;;;;;;2.43;100.00;99101.88;5039994;28;20037;-80
2021/01/23 03:00:08;;;;;;;52.45;22.65;;;;;;;2.44;100.00;99106.09;5058893;28;20060;-80
2021/01/23 03:02:52;;;;;;;52.90;23.88;;;;;;;2.42;100.00;99105.66;5046238;28;20032;-80
2021/01/23 03:05:18;;;;;;;58.03;23.17;;;;;;;2.40;100.00;99115.84;5056919;28;20123;-80
2021/01/23 03:07:45;;;;;;;52.60;23.60;;;;;;;2.37;100.00;99106.66;5078872;28;20036;-80
2021/01/23 03:10:11;;;;;;;49.10;21.92;;;;;;;2.41;100.00;99107.53;5060512;28;20040;-79
2021/01/23 03:12:37;;;;;;;54.63;22.58;;;;;;;2.37;100.00;99117.28;5038982;28;20040;-78
2021/01/23 03:15:04;;;;;;;47.75;22.08;;;;;;;2.38;100.00;99112.75;5059281;28;20040;-78
2021/01/23 03:17:29;;;;;;;55.35;22.50;;;;;;;2.34;100.00;99114.53;5075260;28;20043;-80
2021/01/23 03:19:55;;;;;;;52.03;22.50;;;;;;;2.37;100.00;99117.28;5048412;28;20028;-80
2021/01/23 03:22:20;;;;;;;57.38;22.77;;;;;;;2.27;100.00;99117.75;5040230;28;20025;-80
2021/01/23 03:24:46;;;;;;;47.80;22.63;;;;;;;2.32;100.00;99109.53;5071160;28;20063;-80
2021/01/23 03:27:12;;;;;;;51.67;22.77;;;;;;;2.37;100.00;99116.50;5055873;28;20041;-80
2021/01/23 03:29:37;;;;;;;47.95;21.73;;;;;;;2.34;100.00;99111.88;5062762;28;20028;-80
2021/01/23 03:32:03;;;;;;;47.53;21.73;;;;;;;2.30;100.00;99105.69;5045893;28;20757;-82
2021/01/23 03:34:29;;;;;;;46.03;20.98;;;;;;;2.31;100.00;99115.19;5059105;28;20055;-79
2021/01/23 03:36:54;;;;;;;55.47;23.33;;;;;;;2.33;100.00;99113.75;5081422;28;20607;-80
2021/01/23 03:39:20;;;;;;;53.45;21.92;;;;;;;2.31;100.00;99113.31;5074240;28;20024;-80
2021/01/23 03:41:45;;;;;;;54.65;21.80;;;;;;;2.32;100.00;99119.41;5038452;28;20064;-80
2021/01/23 03:44:11;;;;;;;47.55;21.58;;;;;;;2.33;100.00;99115.63;5058776;28;20395;-80
2021/01/23 03:46:37;;;;;;;51.25;19.88;;;;;;;2.30;100.00;99109.13;5068684;28;20078;-80
2021/01/23 03:49:03;;;;;;;52.97;22.77;;;;;;;2.29;100.00;99112.88;5037083;28;20042;-80
2021/01/23 03:51:28;;;;;;;54.75;23.65;;;;;;;2.31;100.00;99120.50;5036058;28;20033;-80
2021/01/23 03:53:54;;;;;;;53.25;22.08;;;;;;;2.30;100.00;99116.31;5044190;28;20043;-79
2021/01/23 03:56:19;;;;;;;49.83;21.15;;;;;;;2.27;100.00;99117.75;5059118;28;20486;-80
2021/01/23 03:58:45;;;;;;;50.95;22.27;;;;;;;2.27;100.00;99116.97;5046447;28;20048;-80
2021/01/23 04:01:10;;;;;;;57.25;23.38;;;;;;;2.25;100.00;99113.88;5048027;28;20028;-80
2021/01/23 04:03:36;;;;;;;50.35;21.85;;;;;;;2.25;100.00;99114.66;5056984;28;20025;-79
2021/01/23 04:06:03;;;;;;;59.58;22.80;;;;;;;2.24;100.00;99122.97;5064340;28;20036;-80
2021/01/23 04:08:32;;;;;;;54.15;23.30;;;;;;;2.25;100.00;99114.66;5040922;28;20025;-80
2021/01/23 04:10:57;;;;;;;56.88;23.25;;;;;;;2.28;100.00;99115.88;5039011;28;20079;-80
2021/01/23 04:13:23;;;;;;;57.83;23.05;;;;;;;2.22;100.00;99106.59;5058927;28;20040;-80
2021/01/23 04:16:09;;;;;;;52.47;23.45;;;;;;;2.24;100.00;99115.00;5057180;28;20028;-79
2021/01/23 04:18:34;;;;;;;53.83;23.13;;;;;;;2.21;100.00;99116.44;4996468;28;20046;-80
2021/01/23 04:21:00;;;;;;;56.60;23.08;;;;;;;2.21;100.00;99111.13;4996311;28;20044;-80
2021/01/23 04:23:25;;;;;;;52.85;23.33;;;;;;;2.23;100.00;99108.91;5013539;28;20161;-79
2021/01/23 04:25:51;;;;;;;50.00;22.45;;;;;;;2.22;100.00;99102.06;5017798;28;20042;-80
2021/01/23 04:28:16;;;;;;;51.10;20.88;;;;;;;2.21;100.00;99102.38;4999631;28;20126;-78
2021/01/23 04:30:46;;;;;;;53.00;22.35;;;;;;;2.17;100.00;99104.94;4992465;28;20495;-78
2021/01/23 04:33:11;;;;;;;51.65;20.67;;;;;;;2.18;100.00;99089.81;5009139;28;20038;-80
2021/01/23 04:35:37;;;;;;;56.15;22.27;;;;;;;2.18;100.00;99098.53;4986533;28;20038;-80
2021/01/23 04:38:03;;;;;;;47.22;20.77;;;;;;;2.14;100.00;99092.38;4981475;28;20072;-80
2021/01/23 04:40:28;;;;;;;48.03;21.02;;;;;;;2.15;100.00;99095.81;4996968;28;20480;-80
2021/01/23 04:42:55;;;;;;;49.80;22.35;;;;;;;2.19;100.00;99100.06;5009329;28;20124;-80
2021/01/23 04:45:20;;;;;;;53.17;21.55;;;;;;;2.17;100.00;99102.28;4974984;28;20064;-80
2021/01/23 04:47:46;;;;;;;53.88;22.48;;;;;;;2.16;100.00;99103.41;5001718;28;20055;-80
2021/01/23 04:50:32;;;;;;;52.08;21.38;;;;;;;2.13;100.00;99095.38;5001948;28;20046;-80
2021/01/23 04:52:57;;;;;;;56.08;21.70;;;;;;;2.14;100.00;99099.56;4981202;28;20058;-80
2021/01/23 04:55:23;;;;;;;50.78;21.70;;;;;;;2.10;100.00;99101.31;4993917;28;20091;-80
2021/01/23 04:57:48;;;;;;;48.42;21.13;;;;;;;2.08;100.00;99109.63;4998436;28;20140;-80
2021/01/23 05:00:14;;;;;;;49.92;21.50;;;;;;;2.06;100.00;99105.75;5017796;28;20439;-80
2021/01/23 05:02:40;;;;;;;46.88;21.33;;;;;;;2.05;100.00;99110.31;4999246;28;20159;-78
2021/01/23 05:05:07;;;;;;;52.10;22.30;;;;;;;2.05;100.00;99099.69;4993688;28;20041;-80
2021/01/23 05:07:37;;;;;;;47.53;21.02;;;;;;;2.04;100.00;99092.84;5023643;28;20933;-79
2021/01/23 05:10:12;;;;;;;53.15;22.67;;;;;;;2.03;100.00;99103.78;4988944;28;20045;-80
2021/01/23 05:12:48;;;;;;;52.83;20.83;;;;;;;2.02;100.00;99100.34;5001177;28;20513;-79
2021/01/23 05:15:30;;;;;;;51.88;22.45;;;;;;;2.05;100.00;99099.69;5021293;28;20037;-79
2021/01/23 05:17:59;;;;;;;54.75;22.70;;;;;;;2.03;100.00;99104.56;5014780;28;20053;-80
2021/01/23 05:20:49;;;;;;;59.40;23.85;;;;;;;1.99;100.00;99090.44;4993346;28;20041;-79
2021/01/23 05:23:27;;;;;;;63.50;24.45;;;;;;;2.04;100.00;99092.06;5014967;28;20053;-79
2021/01/23 05:25:53;;;;;;;64.22;25.92;;;;;;;2.06;100.00;99084.53;5011168;28;20052;-78
2021/01/23 05:28:33;;;;;;;67.28;26.92;;;;;;;2.08;100.00;99082.31;5028829;28;20065;-80
2021/01/23 05:31:00;;;;;;;65.60;25.98;;;;;;;2.06;100.00;99081.88;5060439;28;20241;-78
2021/01/23 05:33:32;;;;;;;70.07;26.35;;;;;;;2.03;100.00;99091.31;5056383;28;20024;-80
2021/01/23 05:36:05;;;;;;;64.28;25.10;;;;;;;2.06;100.00;99093.28;5048010;28;20052;-80
2021/01/23 05:38:31;;;;;;;57.90;24.20;;;;;;;1.99;100.00;99102.91;5038720;28;20040;-80
2021/01/23 05:41:11;;;;;;;64.10;24.88;;;;;;;2.00;100.00;99097.25;5038296;28;20024;-80
2021/01/23 05:43:43;;;;;;;67.00;25.88;;;;;;;2.00;100.00;99093.84;5039627;28;20037;-78
2021/01/23 05:46:29;;;;;;;;;;;;;;;1.96;100.00;99085.78;5067672;28;20390;-80
2021/01/23 05:48:55;;;;;;;60.67;24.20;;;;;;;1.98;100.00;99083.56;5056240;28;19912;-79
2021/01/23 05:51:22;;;;;;;64.28;25.45;;;;;;;1.99;100.00;99093.09;5053551;28;20028;-78
2021/01/23 05:53:49;;;;;;;62.00;23.70;;;;;;;2.01;100.00;99092.75;5041900;28;20045;-79
2021/01/23 05:56:15;;;;;;;61.08;23.77;;;;;;;1.95;100.00;99094.84;5030889;28;20040;-79
2021/01/23 05:58:43;;;;;;;69.55;26.52;;;;;;;1.96;100.00;99098.25;5039537;28;20032;-80
2021/01/23 06:01:15;;;;;;;60.70;25.25;;;;;;;1.99;100.00;99097.59;5070314;28;20032;-79
2021/01/23 06:03:47;;;;;;;69.20;27.13;;;;;;;1.98;100.00;99099.47;5056430;28;20758;-80
2021/01/23 06:06:13;;;;;;;73.50;28.25;;;;;;;1.94;100.00;99097.81;5072202;28;20538;-80
2021/01/23 06:08:43;;;;;;;76.55;29.70;;;;;;;1.91;100.00;99095.84;5043796;28;20024;-79
2021/01/23 06:11:32;;;;;;;71.78;27.75;;;;;;;1.91;100.00;99093.19;5053746;28;20374;-77
2021/01/23 06:13:57;;;;;;;71.85;27.88;;;;;;;1.94;100.00;99100.47;5049319;28;20057;-77
2021/01/23 06:16:32;;;;;;;69.80;25.77;;;;;;;1.94;100.00;99097.81;5053195;28;20424;-79
2021/01/23 06:19:07;;;;;;;70.32;25.70;;;;;;;1.94;100.00;99103.91;5073585;28;20041;-80
2021/01/23 06:21:44;;;;;;;66.93;26.08;;;;;;;1.96;100.00;99107.00;5038517;28;20024;-80
2021/01/23 06:24:15;;;;;;;63.88;25.73;;;;;;;1.97;100.00;99103.25;5056303;28;20040;-79
2021/01/23 06:26:52;;;;;;;70.10;28.00;;;;;;;1.95;100.00;99102.81;5038246;28;20044;-78
2021/01/23 06:29:35;;;;;;;73.65;26.83;;;;;;;1.92;100.00;99106.13;5053596;28;20299;-79
2021/01/23 06:32:21;;;;;;;67.53;27.13;;;;;;;1.95;100.00;99110.00;5073362;28;20036;-79
2021/01/23 06:34:50;;;;;;;76.10;27.02;;;;;;;1.95;100.00;99115.31;5031127;28;20059;-79
2021/01/23 06:37:37;;;;;;;63.65;25.80;;;;;;;1.92;100.00;99116.00;5037375;28;20039;-78
2021/01/23 06:40:36;;;;;;;72.60;26.33;;;;;;;1.87;100.00;99116.22;5034889;28;20032;-80
2021/01/23 06:43:05;;;;;;;72.53;25.98;;;;;;;1.84;100.00;99121.06;5030609;28;20048;-78
2021/01/23 06:45:35;;;;;;;77.97;29.20;;;;;;;1.86;100.00;99112.03;5036435;28;20040;-78
2021/01/23 06:48:01;;;;;;;71.32;26.55;;;;;;;1.88;100.00;99113.22;5086835;28;20500;-78
2021/01/23 06:50:31;;;;;;;73.28;25.52;;;;;;;1.87;100.00;99124.94;5022507;28;20083;-79
2021/01/23 06:52:57;;;;;;;71.47;25.80;;;;;;;1.86;100.00;99122.63;5054788;28;20093;-78
2021/01/23 06:55:43;;;;;;;70.43;26.42;;;;;;;1.90;100.00;99131.47;5052433;28;20103;-79
2021/01/23 06:58:16;;;;;;;75.45;25.88;;;;;;;1.93;100.00;99138.75;5052175;28;20608;-80
2021/01/23 07:00:42;;;;;;;76.22;27.80;;;;;;;1.89;100.00;99127.25;5040653;28;20051;-78
2021/01/23 07:03:14;;;;;;;82.93;29.27;;;;;;;1.78;100.00;99135.66;5073442;28;20095;-79
2021/01/23 07:06:00;;;;;;;70.70;27.13;;;;;;;1.83;100.00;99135.47;5051048;28;20719;-78
2021/01/23 07:08:28;;;;;;;71.55;26.38;;;;;;;1.78;100.00;99133.03;5045433;28;20036;-78
2021/01/23 07:11:07;;;;;;;80.32;27.98;;;;;;;1.76;100.00;99140.53;5046810;28;20050;-80
2021/01/23 07:13:33;;;;;;;74.40;27.42;;;;;;;1.83;100.00;99142.63;5036277;28;20094;-79
2021/01/23 07:15:59;;;;;;;67.22;27.15;;;;;;;1.89;100.00;99143.97;5084112;28;20054;-81
2021/01/23 07:18:25;;;;;;;68.53;27.25;;;;;;;1.79;100.00;99137.22;5053661;28;20067;-79
2021/01/23 07:20:51;;;;;;;83.60;28.00;;;;;;;1.70;100.00;99139.22;5063156;28;20032;-79
2021/01/23 07:23:38;;;;;;;77.82;28.83;;;;;;;1.65;100.00;99136.78;5042079;28;20035;-79
2021/01/23 07:26:24;;;;;;;75.45;25.98;;;;;;;1.62;100.00;99137.47;4980904;28;20048;-80
2021/01/23 07:29:11;;;;;;;77.65;26.30;;;;;;;1.61;100.00;99137.78;4936289;28;20039;-80
2021/01/23 07:31:36;;;;;;;76.63;27.25;;;;;;;1.64;100.00;99132.63;4894629;29;20052;-79
2021/01/23 07:34:12;;;;;;;72.55;26.17;;;;;;;1.64;100.00;99137.13;4882551;29;20040;-79
2021/01/23 07:36:40;;;;;;;75.70;26.40;;;;;;;1.65;100.00;99130.72;4898032;29;20068;-80
2021/01/23 07:39:14;;;;;;;75.90;26.52;;;;;;;1.59;100.00;99130.16;4884584;29;20048;-79
2021/01/23 07:41:52;;;;;;;82.15;28.25;;;;;;;1.60;100.00;99130.94;4896999;29;20043;-80
2021/01/23 07:44:19;;;;;;;73.28;26.38;;;;;;;1.54;100.00;99127.75;4879008;29;20044;-78
2021/01/23 07:46:47;;;;;;;72.95;24.98;;;;;;;1.60;100.00;99134.38;4891251;29;20075;-79
2021/01/23 07:49:24;;;;;;;73.03;27.52;;;;;;;1.58;100.00;99128.63;4896980;29;20140;-78
2021/01/23 07:52:07;;;;;;;78.88;27.27;;;;;;;1.57;100.00;99121.78;4880111;29;20044;-79
2021/01/23 07:54:33;;;;;;;77.40;27.60;;;;;;;1.59;100.00;99119.56;4883013;29;20033;-79
2021/01/23 07:56:58;;;;;;;76.18;26.33;;;;;;;1.57;100.00;99113.81;4897138;29;20673;-78
2021/01/23 07:59:44;;;;;;;74.25;27.17;;;;;;;1.67;100.00;99108.06;4885654;29;20049;-80
2021/01/23 08:02:10;;;;;;;67.07;24.35;;;;;;;1.71;100.00;99103.63;4900120;29;20108;-79
2021/01/23 08:04:37;;;;;;;64.07;24.13;;;;;;;1.77;100.00;99097.00;4936449;28;20042;-80
2021/01/23 08:07:25;;;;;;;79.97;27.02;;;;;;;1.79;100.00;99096.66;4986836;28;20050;-79
2021/01/23 08:10:03;;;;;;;69.82;25.52;;;;;;;1.85;100.00;99095.31;5056626;28;20062;-80
2021/01/23 08:12:28;;;;;;;66.78;25.35;;;;;;;1.82;100.00;99091.44;5056196;28;20051;-80
2021/01/23 08:14:55;;;;;;;71.75;27.00;;;;;;;1.83;100.00;99085.06;5054331;28;20104;-80
2021/01/23 08:17:38;;;;;;;70.05;25.33;;;;;;;1.88;100.00;99084.03;5039901;28;20578;-78
2021/01/23 08:20:09;;;;;;;73.15;26.08;;;;;;;1.93;100.00;99080.38;5074955;28;20028;-78
2021/01/23 08:23:07;;;;;;;72.13;26.23;;;;;;;1.83;100.00;99074.44;5056488;28;20058;-80
2021/01/23 08:25:38;;;;;;;70.30;26.05;;;;;;;1.87;100.00;99081.72;5034989;28;20127;-80
2021/01/23 08:28:06;;;;;;;67.15;25.60;;;;;;;1.91;100.00;99077.28;5088595;28;20524;-80
2021/01/23 08:30:32;;;;;;;71.22;25.35;;;;;;;1.89;100.00;99068.88;5041993;28;20296;-80
2021/01/23 08:32:58;;;;;;;71.40;26.17;;;;;;;1.94;100.00;99072.06;5038676;28;20059;-79
2021/01/23 08:35:25;;;;;;;73.10;26.95;;;;;;;1.99;100.00;99071.84;5057695;28;20044;-81
2021/01/23 08:37:50;;;;;;;75.63;27.23;;;;;;;1.94;100.00;99060.69;5073716;28;20416;-79
2021/01/23 08:40:23;;;;;;;72.90;26.40;;;;;;;2.02;100.00;99067.72;5085705;28;20028;-79
2021/01/23 08:42:50;;;;;;;65.82;25.63;;;;;;;1.98;100.00;99072.16;5066856;28;20456;-81
2021/01/23 08:45:25;;;;;;;75.68;27.55;;;;;;;2.00;100.00;99064.63;5046831;28;20032;-79
2021/01/23 08:47:51;;;;;;;69.90;26.88;;;;;;;2.04;100.00;99065.50;5045066;28;20028;-79
2021/01/23 08:50:18;;;;;;;76.97;27.73;;;;;;;2.05;100.00;99069.72;5066608;28;20105;-80
2021/01/23 08:52:43;;;;;;;82.32;28.95;;;;;;;2.03;100.00;99069.28;5056198;28;20088;-79
2021/01/23 08:55:09;;;;;;;67.20;26.58;;;;;;;2.02;100.00;99068.50;5058453;28;20441;-79
2021/01/23 08:57:35;;;;;;;68.03;26.73;;;;;;;2.09;100.00;99068.69;5048034;28;20033;-79
2021/01/23 09:00:01;;;;;;;79.35;30.17;;;;;;;2.10;100.00;99070.25;5038922;28;20110;-79
2021/01/23 09:02:26;;;;;;;66.28;26.65;;;;;;;2.10;100.00;99066.81;5053117;28;20024;-78
2021/01/23 09:04:52;;;;;;;75.63;27.75;;;;;;;2.13;100.00;99063.50;5056490;28;20552;-80
2021/01/23 09:07:18;;;;;;;73.55;28.35;;;;;;;2.12;100.00;99064.59;5045887;28;20520;-80
2021/01/23 09:09:43;;;;;;;73.45;27.55;;;;;;;2.18;100.00;99055.28;5066580;28;20046;-79
2021/01/23 09:12:09;;;;;;;73.55;28.63;;;;;;;2.21;100.00;99054.59;5067509;28;20443;-80
2021/01/23 09:14:35;;;;;;;64.38;25.85;;;;;;;2.25;100.00;99071.41;5047646;28;20033;-80
2021/01/23 09:17:01;;;;;;;77.53;30.17;;;;;;;2.36;100.00;99072.47;5057939;28;20067;-78
2021/01/23 09:19:26;;;;;;;71.93;29.02;;;;;;;2.32;100.00;99076.91;5057448;28;20090;-79
2021/01/23 09:21:52;;;;;;;68.78;27.83;;;;;;;2.29;100.00;99077.59;5036874;28;20025;-80
2021/01/23 09:24:18;;;;;;;75.45;28.50;;;;;;;2.34;100.00;99082.66;5041138;28;20032;-80
2021/01/23 09:26:44;;;;;;;77.53;28.60;;;;;;;2.37;100.00;99084.63;5071580;28;20036;-77
2021/01/23 09:29:12;;;;;;;76.95;29.05;;;;;;;2.35;100.00;99079.66;5088514;28;20040;-80
2021/01/23 09:31:38;;;;;;;72.07;28.48;;;;;;;2.40;100.00;99084.72;5045100;28;20020;-80
2021/01/23 09:34:03;;;;;;;70.35;26.42;;;;;;;2.40;100.00;99087.38;5073688;28;20036;-80
2021/01/23 09:36:29;;;;;;;73.20;28.25;;;;;;;2.46;100.00;99098.53;5056853;28;20397;-81
2021/01/23 09:38:55;;;;;;;78.72;31.95;;;;;;;2.46;100.00;99098.53;5055706;28;20455;-77
2021/01/23 09:41:21;;;;;;;69.55;27.83;;;;;;;2.52;100.00;99103.25;5039747;28;20107;-80
2021/01/23 09:43:47;;;;;;;81.22;27.50;;;;;;;2.59;100.00;99100.03;5064683;28;20036;-78
2021/01/23 09:46:14;;;;;;;67.50;28.63;;;;;;;2.57;100.00;99095.06;5060457;28;20027;-80
2021/01/23 09:48:40;;;;;;;68.68;28.80;;;;;;;2.63;100.00;99103.56;5062012;28;20036;-80
2021/01/23 09:51:05;;;;;;;70.78;28.90;;;;;;;2.61;100.00;99101.22;5038381;28;20783;-80
2021/01/23 09:53:31;;;;;;;72.60;30.15;;;;;;;2.69;100.00;99102.19;5058774;28;20039;-80
2021/01/23 09:55:57;;;;;;;72.13;27.60;;;;;;;2.74;100.00;99110.69;5052906;28;20037;-77
2021/01/23 09:58:22;;;;;;;69.45;28.42;;;;;;;2.79;100.00;99101.66;5053649;28;20037;-80
2021/01/23 10:00:49;;;;;;;66.85;28.02;;;;;;;2.83;100.00;99096.47;5067143;28;20028;-80
2021/01/23 10:03:14;;;;;;;70.30;29.10;;;;;;;2.82;100.00;99087.72;5064941;28;20033;-80
2021/01/23 10:05:40;;;;;;;66.60;26.52;;;;;;;2.86;100.00;99091.25;5058254;28;20455;-80
2021/01/23 10:08:06;;;;;;;70.63;26.90;;;;;;;2.96;100.00;99098.69;5037255;28;20025;-79
2021/01/23 10:10:32;;;;;;;66.70;26.45;;;;;;;2.99;100.00;99098.00;5051284;28;20037;-78
2021/01/23 10:12:57;;;;;;;63.15;27.10;;;;;;;2.94;100.00;99097.50;5064659;28;20059;-79
2021/01/23 10:15:23;;;;;;;63.50;27.48;;;;;;;2.91;100.00;99096.28;5058671;28;20032;-77
2021/01/23 10:17:48;;;;;;;62.00;26.75;;;;;;;2.93;100.00;99102.03;5037614;28;20040;-80
2021/01/23 10:20:14;;;;;;;65.25;26.23;;;;;;;2.95;100.00;99104.34;5053752;28;20029;-80
2021/01/23 10:22:39;;;;;;;67.05;28.38;;;;;;;3.02;100.00;99104.53;5065068;28;20032;-80
2021/01/23 10:25:06;;;;;;;62.88;26.75;;;;;;;3.09;100.00;99099.38;5066892;28;20032;-80
2021/01/23 10:27:31;;;;;;;63.47;27.40;;;;;;;3.03;100.00;99100.75;5049109;28;20055;-78
2021/01/23 10:29:57;;;;;;;65.32;26.83;;;;;;;3.11;100.00;99100.59;5054236;28;20044;-77
2021/01/23 10:32:22;;;;;;;68.13;29.08;;;;;;;3.23;100.00;99103.16;5026488;28;20021;-79
2021/01/23 10:34:48;;;;;;;64.82;26.35;;;;;;;3.13;100.00;99092.28;5055767;28;20070;-79
2021/01/23 10:37:13;;;;;;;57.33;25.00;;;;;;;3.17;100.00;99093.91;5032622;28;20028;-78
2021/01/23 10:39:39;;;;;;;62.03;28.35;;;;;;;3.21;100.00;99089.44;5053614;28;20032;-79
2021/01/23 10:42:05;;;;;;;65.70;26.30;;;;;;;3.27;100.00;99100.59;5040857;28;20021;-80
2021/01/23 10:44:51;;;;;;;61.25;27.45;;;;;;;3.32;100.00;99087.03;5046660;28;20032;-81
2021/01/23 10:47:17;;;;;;;59.22;26.90;;;;;;;3.35;100.00;99083.66;4995203;28;20452;-81
2021/01/23 10:50:03;;;;;;;64.32;27.17;;;;;;;3.39;100.00;99081.84;4991527;28;20050;-81
2021/01/23 10:52:29;;;;;;;65.70;26.60;;;;;;;3.44;100.00;99082.38;4958463;28;20130;-80
2021/01/23 10:54:55;;;;;;;62.92;29.25;;;;;;;3.44;100.00;99079.72;4954020;28;20058;-80
2021/01/23 10:57:20;;;;;;;63.30;26.70;;;;;;;3.46;100.00;99082.81;4970975;28;20039;-80
2021/01/23 10:59:46;;;;;;;57.42;26.38;;;;;;;3.43;100.00;99078.16;4939464;28;20219;-81
2021/01/23 11:02:12;;;;;;;57.78;26.60;;;;;;;3.35;100.00;99076.47;4938027;28;20035;-79
2021/01/23 11:04:37;;;;;;;57.63;26.88;;;;;;;3.36;100.00;99078.03;4945214;28;20043;-80
2021/01/23 11:07:23;;;;;;;59.25;26.95;;;;;;;3.43;100.00;99067.53;4956712;28;20057;-79
2021/01/23 11:09:49;;;;;;;57.25;27.20;;;;;;;3.44;100.00;99063.00;4918708;29;20051;-80
2021/01/23 11:12:14;;;;;;;56.40;26.38;;;;;;;3.45;100.00;99059.19;4881616;29;20657;-80
2021/01/23 11:14:40;;;;;;;59.03;25.50;;;;;;;3.49;100.00;99052.84;4899009;29;20044;-80
2021/01/23 11:17:05;;;;;;;59.40;24.95;;;;;;;3.51;100.00;99047.94;4890592;29;20072;-81
2021/01/23 11:19:31;;;;;;;64.18;25.38;;;;;;;3.60;100.00;99035.22;4907006;29;20396;-81
2021/01/23 11:21:56;;;;;;;59.53;24.95;;;;;;;3.73;100.00;99043.06;4904575;29;20059;-81
2021/01/23 11:24:22;;;;;;;54.63;24.30;;;;;;;3.86;100.00;99036.50;4906454;28;20039;-78
2021/01/23 11:26:48;;;;;;;55.03;24.65;;;;;;;3.97;100.00;99029.50;4931244;29;20047;-81